sensor_id;sensor_type;location;lat;lon;timestamp;temperature;humidity
10451;DHT22;5273;51.290;6.918;2023-02-28T00:01:24;1.60;87.70
10451;DHT22;5273;51.290;6.918;2023-02-28T00:04:00;1.60;88.00
10451;DHT22;5273;51.290;6.918;2023-02-28T00:06:41;1.60;88.60
10451;DHT22;5273;51.290;6.918;2023-02-28T00:09:14;1.70;88.70
10451;DHT22;5273;51.290;6.918;2023-02-28T00:11:50;1.70;89.10
10451;DHT22;5273;51.290;6.918;2023-02-28T00:16:52;1.70;89.60
10451;DHT22;5273;51.290;6.918;2023-02-28T00:19:23;1.70;90.00
10451;DHT22;5273;51.290;6.918;2023-02-28T00:24:43;1.70;90.50
10451;DHT22;5273;51.290;6.918;2023-02-28T00:27:16;1.70;90.60
10451;DHT22;5273;51.290;6.918;2023-02-28T00:29:51;1.70;90.60
10451;DHT22;5273;51.290;6.918;2023-02-28T00:32:25;1.70;90.60
10451;DHT22;5273;51.290;6.918;2023-02-28T00:37:23;1.70;90.80
10451;DHT22;5273;51.290;6.918;2023-02-28T00:39:58;1.70;90.90
10451;DHT22;5273;51.290;6.918;2023-02-28T00:42:36;1.70;91.00
10451;DHT22;5273;51.290;6.918;2023-02-28T00:45:08;1.60;91.30
10451;DHT22;5273;51.290;6.918;2023-02-28T00:47:40;1.50;91.40
10451;DHT22;5273;51.290;6.918;2023-02-28T00:50:21;1.50;91.70
10451;DHT22;5273;51.290;6.918;2023-02-28T00:53:08;1.50;92.00
10451;DHT22;5273;51.290;6.918;2023-02-28T00:58:11;1.40;92.20
10451;DHT22;5273;51.290;6.918;2023-02-28T01:00:47;1.40;92.30
10451;DHT22;5273;51.290;6.918;2023-02-28T01:03:24;1.30;92.50
10451;DHT22;5273;51.290;6.918;2023-02-28T01:06:01;1.30;92.70
10451;DHT22;5273;51.290;6.918;2023-02-28T01:11:14;1.30;93.00
10451;DHT22;5273;51.290;6.918;2023-02-28T01:13:52;1.20;93.20
10451;DHT22;5273;51.290;6.918;2023-02-28T01:19:03;1.20;93.40
10451;DHT22;5273;51.290;6.918;2023-02-28T01:24:05;1.20;93.70
10451;DHT22;5273;51.290;6.918;2023-02-28T01:26:40;1.10;93.80
10451;DHT22;5273;51.290;6.918;2023-02-28T01:29:11;1.10;94.00
10451;DHT22;5273;51.290;6.918;2023-02-28T01:31:48;1.00;94.30
10451;DHT22;5273;51.290;6.918;2023-02-28T01:44:56;0.90;94.90
10451;DHT22;5273;51.290;6.918;2023-02-28T01:47:30;0.90;94.90
10451;DHT22;5273;51.290;6.918;2023-02-28T01:50:11;0.90;95.20
10451;DHT22;5273;51.290;6.918;2023-02-28T01:53:00;0.80;95.20
10451;DHT22;5273;51.290;6.918;2023-02-28T01:55:40;0.80;95.50
10451;DHT22;5273;51.290;6.918;2023-02-28T01:58:13;0.80;95.60
10451;DHT22;5273;51.290;6.918;2023-02-28T02:00:52;0.80;95.70
10451;DHT22;5273;51.290;6.918;2023-02-28T02:03:25;0.80;95.80
10451;DHT22;5273;51.290;6.918;2023-02-28T02:05:55;0.80;95.70
10451;DHT22;5273;51.290;6.918;2023-02-28T02:11:09;0.80;95.80
10451;DHT22;5273;51.290;6.918;2023-02-28T02:13:57;0.80;95.50
10451;DHT22;5273;51.290;6.918;2023-02-28T02:16:39;0.70;95.70
10451;DHT22;5273;51.290;6.918;2023-02-28T02:19:33;0.70;96.00
10451;DHT22;5273;51.290;6.918;2023-02-28T02:22:24;0.70;96.20
10451;DHT22;5273;51.290;6.918;2023-02-28T02:25:12;0.60;96.20
10451;DHT22;5273;51.290;6.918;2023-02-28T02:28:09;0.70;96.30
10451;DHT22;5273;51.290;6.918;2023-02-28T02:31:21;0.60;96.30
10451;DHT22;5273;51.290;6.918;2023-02-28T02:34:31;0.60;96.40
10451;DHT22;5273;51.290;6.918;2023-02-28T02:37:11;0.60;96.50
10451;DHT22;5273;51.290;6.918;2023-02-28T02:39:45;0.50;96.40
10451;DHT22;5273;51.290;6.918;2023-02-28T02:42:16;0.40;96.60
10451;DHT22;5273;51.290;6.918;2023-02-28T02:44:50;0.40;96.90
10451;DHT22;5273;51.290;6.918;2023-02-28T02:47:20;0.40;97.20
10451;DHT22;5273;51.290;6.918;2023-02-28T02:49:52;0.40;97.30
10451;DHT22;5273;51.290;6.918;2023-02-28T02:52:24;0.40;97.50
10451;DHT22;5273;51.290;6.918;2023-02-28T02:54:55;0.40;97.50
10451;DHT22;5273;51.290;6.918;2023-02-28T02:57:25;0.40;97.50
10451;DHT22;5273;51.290;6.918;2023-02-28T02:59:54;0.40;97.50
10451;DHT22;5273;51.290;6.918;2023-02-28T03:02:22;0.40;97.50
10451;DHT22;5273;51.290;6.918;2023-02-28T03:04:56;0.40;97.50
10451;DHT22;5273;51.290;6.918;2023-02-28T03:12:23;0.30;97.00
10451;DHT22;5273;51.290;6.918;2023-02-28T03:15:05;0.30;96.50
10451;DHT22;5273;51.290;6.918;2023-02-28T03:17:55;0.30;96.60
10451;DHT22;5273;51.290;6.918;2023-02-28T03:20:36;0.30;96.30
10451;DHT22;5273;51.290;6.918;2023-02-28T03:23:13;0.30;96.10
10451;DHT22;5273;51.290;6.918;2023-02-28T03:25:52;-1.50;95.20
10451;DHT22;5273;51.290;6.918;2023-02-28T03:28:29;0.20;96.00
10451;DHT22;5273;51.290;6.918;2023-02-28T03:31:00;1.20;96.30
10451;DHT22;5273;51.290;6.918;2023-02-28T03:33:34;0.20;95.80
10451;DHT22;5273;51.290;6.918;2023-02-28T03:36:07;0.20;95.80
10451;DHT22;5273;51.290;6.918;2023-02-28T03:38:38;0.20;95.60
10451;DHT22;5273;51.290;6.918;2023-02-28T03:41:10;0.20;95.60
10451;DHT22;5273;51.290;6.918;2023-02-28T03:43:41;0.10;95.60
10451;DHT22;5273;51.290;6.918;2023-02-28T03:46:11;0.10;95.40
10451;DHT22;5273;51.290;6.918;2023-02-28T03:48:43;0.10;95.40
10451;DHT22;5273;51.290;6.918;2023-02-28T03:51:15;0.10;95.30
10451;DHT22;5273;51.290;6.918;2023-02-28T03:53:45;0.00;95.10
10451;DHT22;5273;51.290;6.918;2023-02-28T03:56:17;0.00;95.20
10451;DHT22;5273;51.290;6.918;2023-02-28T03:58:49;0.00;95.10
10451;DHT22;5273;51.290;6.918;2023-02-28T04:01:21;0.00;95.10
10451;DHT22;5273;51.290;6.918;2023-02-28T04:03:50;0.00;95.10
10451;DHT22;5273;51.290;6.918;2023-02-28T04:06:19;0.00;95.10
10451;DHT22;5273;51.290;6.918;2023-02-28T04:08:47;0.00;95.10
10451;DHT22;5273;51.290;6.918;2023-02-28T04:11:22;0.00;95.10
10451;DHT22;5273;51.290;6.918;2023-02-28T04:13:54;0.00;94.90
10451;DHT22;5273;51.290;6.918;2023-02-28T04:18:54;-0.10;94.70
10451;DHT22;5273;51.290;6.918;2023-02-28T04:21:33;-0.10;94.70
10451;DHT22;5273;51.290;6.918;2023-02-28T04:24:20;-0.10;94.80
10451;DHT22;5273;51.290;6.918;2023-02-28T04:27:02;-0.10;94.70
10451;DHT22;5273;51.290;6.918;2023-02-28T04:29:30;-0.20;94.60
10451;DHT22;5273;51.290;6.918;2023-02-28T04:32:06;-0.10;94.40
10451;DHT22;5273;51.290;6.918;2023-02-28T04:37:06;-0.30;94.30
10451;DHT22;5273;51.290;6.918;2023-02-28T04:39:36;-0.30;94.30
10451;DHT22;5273;51.290;6.918;2023-02-28T04:44:42;-0.30;94.30
10451;DHT22;5273;51.290;6.918;2023-02-28T04:47:32;-0.30;94.10
10451;DHT22;5273;51.290;6.918;2023-02-28T04:52:37;-0.30;94.00
10451;DHT22;5273;51.290;6.918;2023-02-28T04:55:07;-0.40;93.90
10451;DHT22;5273;51.290;6.918;2023-02-28T04:57:39;-0.40;93.90
10451;DHT22;5273;51.290;6.918;2023-02-28T05:00:11;-0.40;93.80
10451;DHT22;5273;51.290;6.918;2023-02-28T05:02:47;-0.40;93.70
10451;DHT22;5273;51.290;6.918;2023-02-28T05:07:55;-0.40;93.40
10451;DHT22;5273;51.290;6.918;2023-02-28T05:12:59;-0.50;93.20
10451;DHT22;5273;51.290;6.918;2023-02-28T05:18:00;-0.50;92.90
10451;DHT22;5273;51.290;6.918;2023-02-28T05:20:33;-0.50;93.00
10451;DHT22;5273;51.290;6.918;2023-02-28T05:23:13;-0.50;92.90
10451;DHT22;5273;51.290;6.918;2023-02-28T05:25:59;-0.50;92.90
10451;DHT22;5273;51.290;6.918;2023-02-28T05:29:00;-0.50;92.80
10451;DHT22;5273;51.290;6.918;2023-02-28T05:31:33;-0.50;92.60
10451;DHT22;5273;51.290;6.918;2023-02-28T05:34:11;-0.50;92.60
10451;DHT22;5273;51.290;6.918;2023-02-28T05:36:46;2.90;94.10
10451;DHT22;5273;51.290;6.918;2023-02-28T05:39:14;-0.50;92.40
10451;DHT22;5273;51.290;6.918;2023-02-28T05:46:45;-0.50;92.50
10451;DHT22;5273;51.290;6.918;2023-02-28T05:49:14;-0.60;92.40
10451;DHT22;5273;51.290;6.918;2023-02-28T05:51:47;-0.60;92.50
10451;DHT22;5273;51.290;6.918;2023-02-28T05:54:22;-0.60;92.70
10451;DHT22;5273;51.290;6.918;2023-02-28T05:57:01;-0.60;92.70
10451;DHT22;5273;51.290;6.918;2023-02-28T06:02:14;-0.60;92.90
10451;DHT22;5273;51.290;6.918;2023-02-28T06:04:50;-0.60;93.00
10451;DHT22;5273;51.290;6.918;2023-02-28T06:07:42;-0.60;93.00
10451;DHT22;5273;51.290;6.918;2023-02-28T06:10:14;-0.70;93.00
10451;DHT22;5273;51.290;6.918;2023-02-28T06:12:43;-0.70;93.00
10451;DHT22;5273;51.290;6.918;2023-02-28T06:15:17;-0.70;93.20
10451;DHT22;5273;51.290;6.918;2023-02-28T06:20:28;-0.70;93.20
10451;DHT22;5273;51.290;6.918;2023-02-28T06:23:00;-0.70;93.40
10451;DHT22;5273;51.290;6.918;2023-02-28T06:25:47;-0.70;93.30
10451;DHT22;5273;51.290;6.918;2023-02-28T06:30:49;-0.70;93.30
10451;DHT22;5273;51.290;6.918;2023-02-28T06:33:31;-0.70;93.30
10451;DHT22;5273;51.290;6.918;2023-02-28T06:36:09;-0.50;93.60
10451;DHT22;5273;51.290;6.918;2023-02-28T06:38:47;-0.30;93.50
10451;DHT22;5273;51.290;6.918;2023-02-28T06:41:27;0.10;92.70
10451;DHT22;5273;51.290;6.918;2023-02-28T06:46:24;1.40;90.20
10451;DHT22;5273;51.290;6.918;2023-02-28T06:48:59;2.00;87.60
10451;DHT22;5273;51.290;6.918;2023-02-28T06:51:31;2.70;84.30
10451;DHT22;5273;51.290;6.918;2023-02-28T06:54:10;3.30;80.00
10451;DHT22;5273;51.290;6.918;2023-02-28T06:56:50;4.00;80.20
10451;DHT22;5273;51.290;6.918;2023-02-28T06:59:27;4.80;75.60
10451;DHT22;5273;51.290;6.918;2023-02-28T07:04:37;6.40;67.10
10451;DHT22;5273;51.290;6.918;2023-02-28T07:07:19;7.00;60.80
10451;DHT22;5273;51.290;6.918;2023-02-28T07:09:53;7.50;57.80
10451;DHT22;5273;51.290;6.918;2023-02-28T07:12:24;7.70;54.00
10451;DHT22;5273;51.290;6.918;2023-02-28T07:15:04;8.20;51.90
10451;DHT22;5273;51.290;6.918;2023-02-28T07:20:08;8.80;49.50
10451;DHT22;5273;51.290;6.918;2023-02-28T07:25:11;9.30;46.40
10451;DHT22;5273;51.290;6.918;2023-02-28T07:27:44;9.50;44.90
10451;DHT22;5273;51.290;6.918;2023-02-28T07:30:21;10.00;43.40
10451;DHT22;5273;51.290;6.918;2023-02-28T07:33:04;10.60;41.70
10451;DHT22;5273;51.290;6.918;2023-02-28T07:35:40;11.20;39.50
10451;DHT22;5273;51.290;6.918;2023-02-28T07:38:13;11.30;38.50
10451;DHT22;5273;51.290;6.918;2023-02-28T07:40:47;11.00;38.50
10451;DHT22;5273;51.290;6.918;2023-02-28T07:43:27;11.10;38.30
10451;DHT22;5273;51.290;6.918;2023-02-28T07:46:03;11.00;37.70
10451;DHT22;5273;51.290;6.918;2023-02-28T07:51:16;11.00;37.40
10451;DHT22;5273;51.290;6.918;2023-02-28T07:54:01;11.40;36.50
10451;DHT22;5273;51.290;6.918;2023-02-28T07:59:15;13.00;33.90
10451;DHT22;5273;51.290;6.918;2023-02-28T08:01:57;14.10;32.20
10451;DHT22;5273;51.290;6.918;2023-02-28T08:04:31;14.90;30.20
10451;DHT22;5273;51.290;6.918;2023-02-28T08:07:04;15.10;29.10
10451;DHT22;5273;51.290;6.918;2023-02-28T08:09:41;15.00;28.40
10451;DHT22;5273;51.290;6.918;2023-02-28T08:12:09;15.40;28.80
10451;DHT22;5273;51.290;6.918;2023-02-28T08:14:47;15.10;27.50
10451;DHT22;5273;51.290;6.918;2023-02-28T08:19:54;16.10;27.40
10451;DHT22;5273;51.290;6.918;2023-02-28T08:22:26;15.60;26.20
10451;DHT22;5273;51.290;6.918;2023-02-28T08:24:56;14.90;27.10
10451;DHT22;5273;51.290;6.918;2023-02-28T08:27:24;14.70;27.40
10451;DHT22;5273;51.290;6.918;2023-02-28T08:29:56;14.20;27.20
10451;DHT22;5273;51.290;6.918;2023-02-28T08:32:32;14.40;27.30
10451;DHT22;5273;51.290;6.918;2023-02-28T08:35:03;14.80;26.90
10451;DHT22;5273;51.290;6.918;2023-02-28T08:37:38;15.20;26.40
10451;DHT22;5273;51.290;6.918;2023-02-28T08:40:18;15.90;25.90
10451;DHT22;5273;51.290;6.918;2023-02-28T08:42:53;16.30;24.80
10451;DHT22;5273;51.290;6.918;2023-02-28T08:45:33;15.50;25.10
10451;DHT22;5273;51.290;6.918;2023-02-28T08:48:06;15.50;25.00
10451;DHT22;5273;51.290;6.918;2023-02-28T08:50:39;15.90;25.30
10451;DHT22;5273;51.290;6.918;2023-02-28T08:53:21;16.10;24.50
10451;DHT22;5273;51.290;6.918;2023-02-28T08:56:14;16.10;24.50
10451;DHT22;5273;51.290;6.918;2023-02-28T08:59:10;16.10;24.30
10451;DHT22;5273;51.290;6.918;2023-02-28T09:01:50;16.10;23.70
10451;DHT22;5273;51.290;6.918;2023-02-28T09:04:26;16.00;24.80
10451;DHT22;5273;51.290;6.918;2023-02-28T09:07:03;16.60;24.00
10451;DHT22;5273;51.290;6.918;2023-02-28T09:17:14;17.00;23.40
10451;DHT22;5273;51.290;6.918;2023-02-28T09:29:33;16.40;23.50
10451;DHT22;5273;51.290;6.918;2023-02-28T09:34:29;14.80;24.20
10451;DHT22;5273;51.290;6.918;2023-02-28T09:41:53;15.10;25.20
10451;DHT22;5273;51.290;6.918;2023-02-28T09:44:28;15.70;25.00
10451;DHT22;5273;51.290;6.918;2023-02-28T09:46:58;14.30;24.90
10451;DHT22;5273;51.290;6.918;2023-02-28T09:49:33;13.50;26.20
10451;DHT22;5273;51.290;6.918;2023-02-28T09:52:03;13.10;26.60
10451;DHT22;5273;51.290;6.918;2023-02-28T09:54:32;12.40;27.10
10451;DHT22;5273;51.290;6.918;2023-02-28T09:57:01;12.30;27.40
10451;DHT22;5273;51.290;6.918;2023-02-28T09:59:39;11.80;28.30
10451;DHT22;5273;51.290;6.918;2023-02-28T10:02:17;11.40;28.40
10451;DHT22;5273;51.290;6.918;2023-02-28T10:04:51;10.00;29.00
10451;DHT22;5273;51.290;6.918;2023-02-28T10:07:31;9.10;31.60
10451;DHT22;5273;51.290;6.918;2023-02-28T10:10:06;8.40;33.00
10451;DHT22;5273;51.290;6.918;2023-02-28T10:12:37;7.80;34.30
10451;DHT22;5273;51.290;6.918;2023-02-28T10:15:13;7.90;35.30
10451;DHT22;5273;51.290;6.918;2023-02-28T10:17:43;8.80;33.70
10451;DHT22;5273;51.290;6.918;2023-02-28T10:20:17;9.00;32.80
10451;DHT22;5273;51.290;6.918;2023-02-28T10:22:52;8.70;32.30
10451;DHT22;5273;51.290;6.918;2023-02-28T10:25:21;8.00;33.30
10451;DHT22;5273;51.290;6.918;2023-02-28T10:27:54;7.60;33.80
10451;DHT22;5273;51.290;6.918;2023-02-28T10:35:23;7.70;34.50
10451;DHT22;5273;51.290;6.918;2023-02-28T10:37:53;7.80;34.80
10451;DHT22;5273;51.290;6.918;2023-02-28T10:40:31;7.80;34.60
10451;DHT22;5273;51.290;6.918;2023-02-28T10:43:00;8.40;34.80
10451;DHT22;5273;51.290;6.918;2023-02-28T10:45:28;8.70;33.70
10451;DHT22;5273;51.290;6.918;2023-02-28T10:47:59;8.90;33.30
10451;DHT22;5273;51.290;6.918;2023-02-28T10:50:30;8.40;33.20
10451;DHT22;5273;51.290;6.918;2023-02-28T10:53:13;8.00;34.10
10451;DHT22;5273;51.290;6.918;2023-02-28T10:55:42;7.60;35.10
10451;DHT22;5273;51.290;6.918;2023-02-28T10:58:21;7.80;35.90
10451;DHT22;5273;51.290;6.918;2023-02-28T11:03:25;7.60;34.70
10451;DHT22;5273;51.290;6.918;2023-02-28T11:05:53;7.70;35.80
10451;DHT22;5273;51.290;6.918;2023-02-28T11:10:53;7.90;35.50
10451;DHT22;5273;51.290;6.918;2023-02-28T11:13:24;8.00;35.50
10451;DHT22;5273;51.290;6.918;2023-02-28T11:15:54;8.20;34.90
10451;DHT22;5273;51.290;6.918;2023-02-28T11:18:24;8.10;34.90
10451;DHT22;5273;51.290;6.918;2023-02-28T11:20:57;8.30;35.60
10451;DHT22;5273;51.290;6.918;2023-02-28T11:23:25;8.40;34.80
10451;DHT22;5273;51.290;6.918;2023-02-28T11:25:56;8.50;35.70
10451;DHT22;5273;51.290;6.918;2023-02-28T11:28:28;8.80;34.90
10451;DHT22;5273;51.290;6.918;2023-02-28T11:31:09;8.50;35.10
10451;DHT22;5273;51.290;6.918;2023-02-28T11:33:43;8.60;35.50
10451;DHT22;5273;51.290;6.918;2023-02-28T11:36:14;8.70;36.10
10451;DHT22;5273;51.290;6.918;2023-02-28T11:41:21;8.70;34.30
10451;DHT22;5273;51.290;6.918;2023-02-28T11:43:59;8.60;34.60
10451;DHT22;5273;51.290;6.918;2023-02-28T11:46:33;8.70;34.70
10451;DHT22;5273;51.290;6.918;2023-02-28T11:49:15;8.90;35.30
10451;DHT22;5273;51.290;6.918;2023-02-28T11:51:53;9.20;34.80
10451;DHT22;5273;51.290;6.918;2023-02-28T11:54:48;9.40;35.00
10451;DHT22;5273;51.290;6.918;2023-02-28T11:57:28;9.40;34.90
10451;DHT22;5273;51.290;6.918;2023-02-28T12:00:03;9.30;34.00
10451;DHT22;5273;51.290;6.918;2023-02-28T12:02:34;9.00;34.20
10451;DHT22;5273;51.290;6.918;2023-02-28T12:05:23;8.90;34.70
10451;DHT22;5273;51.290;6.918;2023-02-28T12:08:02;8.80;34.50
10451;DHT22;5273;51.290;6.918;2023-02-28T12:10:35;8.90;35.60
10451;DHT22;5273;51.290;6.918;2023-02-28T12:13:16;9.10;34.60
10451;DHT22;5273;51.290;6.918;2023-02-28T12:16:01;8.90;34.60
10451;DHT22;5273;51.290;6.918;2023-02-28T12:18:47;8.60;35.40
10451;DHT22;5273;51.290;6.918;2023-02-28T12:21:26;8.50;35.90
10451;DHT22;5273;51.290;6.918;2023-02-28T12:24:14;8.40;37.10
10451;DHT22;5273;51.290;6.918;2023-02-28T12:26:45;8.20;36.30
10451;DHT22;5273;51.290;6.918;2023-02-28T12:29:19;8.20;37.40
10451;DHT22;5273;51.290;6.918;2023-02-28T12:31:51;8.20;36.00
10451;DHT22;5273;51.290;6.918;2023-02-28T12:34:22;5.70;35.20
10451;DHT22;5273;51.290;6.918;2023-02-28T12:36:54;8.00;37.70
10451;DHT22;5273;51.290;6.918;2023-02-28T12:39:26;8.10;37.60
10451;DHT22;5273;51.290;6.918;2023-02-28T12:41:59;8.10;37.40
10451;DHT22;5273;51.290;6.918;2023-02-28T12:44:32;8.10;37.70
10451;DHT22;5273;51.290;6.918;2023-02-28T12:47:04;8.10;37.20
10451;DHT22;5273;51.290;6.918;2023-02-28T12:49:33;8.10;37.10
10451;DHT22;5273;51.290;6.918;2023-02-28T12:52:01;8.00;37.20
10451;DHT22;5273;51.290;6.918;2023-02-28T12:54:35;7.90;37.40
10451;DHT22;5273;51.290;6.918;2023-02-28T12:57:08;7.70;37.40
10451;DHT22;5273;51.290;6.918;2023-02-28T12:59:39;7.60;37.90
10451;DHT22;5273;51.290;6.918;2023-02-28T13:02:38;7.70;38.00
10451;DHT22;5273;51.290;6.918;2023-02-28T13:05:29;7.70;38.70
10451;DHT22;5273;51.290;6.918;2023-02-28T13:10:55;7.90;38.10
10451;DHT22;5273;51.290;6.918;2023-02-28T13:13:24;8.00;39.40
10451;DHT22;5273;51.290;6.918;2023-02-28T13:15:59;8.10;38.40
10451;DHT22;5273;51.290;6.918;2023-02-28T13:18:30;8.00;37.90
10451;DHT22;5273;51.290;6.918;2023-02-28T13:23:40;7.80;37.10
10451;DHT22;5273;51.290;6.918;2023-02-28T13:26:08;7.70;38.50
10451;DHT22;5273;51.290;6.918;2023-02-28T13:28:58;7.70;39.20
10451;DHT22;5273;51.290;6.918;2023-02-28T13:34:13;7.70;38.70
10451;DHT22;5273;51.290;6.918;2023-02-28T13:42:35;7.60;39.50
10451;DHT22;5273;51.290;6.918;2023-02-28T13:45:26;7.50;39.40
10451;DHT22;5273;51.290;6.918;2023-02-28T13:47:59;7.50;39.30
10451;DHT22;5273;51.290;6.918;2023-02-28T13:50:29;7.40;39.10
10451;DHT22;5273;51.290;6.918;2023-02-28T13:56:03;7.20;40.10
10451;DHT22;5273;51.290;6.918;2023-02-28T13:58:42;7.20;40.00
10451;DHT22;5273;51.290;6.918;2023-02-28T14:01:28;7.20;40.50
10451;DHT22;5273;51.290;6.918;2023-02-28T14:04:14;7.20;40.40
10451;DHT22;5273;51.290;6.918;2023-02-28T14:06:48;7.30;40.30
10451;DHT22;5273;51.290;6.918;2023-02-28T14:09:21;7.30;40.80
10451;DHT22;5273;51.290;6.918;2023-02-28T14:17:17;7.60;41.40
10451;DHT22;5273;51.290;6.918;2023-02-28T14:19:46;7.70;40.00
10451;DHT22;5273;51.290;6.918;2023-02-28T14:22:32;7.80;40.40
10451;DHT22;5273;51.290;6.918;2023-02-28T14:25:09;7.70;39.40
10451;DHT22;5273;51.290;6.918;2023-02-28T14:27:42;7.50;39.60
10451;DHT22;5273;51.290;6.918;2023-02-28T14:30:49;7.40;40.30
10451;DHT22;5273;51.290;6.918;2023-02-28T14:33:35;7.50;41.10
10451;DHT22;5273;51.290;6.918;2023-02-28T14:36:12;7.70;41.40
10451;DHT22;5273;51.290;6.918;2023-02-28T14:38:45;7.60;41.20
10451;DHT22;5273;51.290;6.918;2023-02-28T14:41:18;7.70;41.30
10451;DHT22;5273;51.290;6.918;2023-02-28T14:43:54;7.50;40.40
10451;DHT22;5273;51.290;6.918;2023-02-28T14:46:23;7.30;41.30
10451;DHT22;5273;51.290;6.918;2023-02-28T14:48:53;10.30;43.50
10451;DHT22;5273;51.290;6.918;2023-02-28T14:51:22;7.40;42.50
10451;DHT22;5273;51.290;6.918;2023-02-28T14:53:52;7.40;42.20
10451;DHT22;5273;51.290;6.918;2023-02-28T14:56:21;7.50;42.60
10451;DHT22;5273;51.290;6.918;2023-02-28T14:58:52;7.60;42.30
10451;DHT22;5273;51.290;6.918;2023-02-28T15:01:20;7.60;42.60
10451;DHT22;5273;51.290;6.918;2023-02-28T15:06:17;7.60;41.20
10451;DHT22;5273;51.290;6.918;2023-02-28T15:11:15;7.40;42.10
10451;DHT22;5273;51.290;6.918;2023-02-28T15:13:46;7.30;42.10
10451;DHT22;5273;51.290;6.918;2023-02-28T15:16:17;7.30;41.90
10451;DHT22;5273;51.290;6.918;2023-02-28T15:18:48;7.30;42.10
10451;DHT22;5273;51.290;6.918;2023-02-28T15:21:19;7.30;42.30
10451;DHT22;5273;51.290;6.918;2023-02-28T15:23:50;7.30;42.50
10451;DHT22;5273;51.290;6.918;2023-02-28T15:26:20;7.20;42.40
10451;DHT22;5273;51.290;6.918;2023-02-28T15:28:49;7.20;42.50
10451;DHT22;5273;51.290;6.918;2023-02-28T15:31:20;7.10;42.60
10451;DHT22;5273;51.290;6.918;2023-02-28T15:33:53;7.00;42.70
10451;DHT22;5273;51.290;6.918;2023-02-28T15:36:25;7.00;42.40
10451;DHT22;5273;51.290;6.918;2023-02-28T15:38:53;7.00;42.10
10451;DHT22;5273;51.290;6.918;2023-02-28T15:41:28;7.00;42.40
10451;DHT22;5273;51.290;6.918;2023-02-28T15:44:16;6.90;42.60
10451;DHT22;5273;51.290;6.918;2023-02-28T15:46:53;6.90;43.80
10451;DHT22;5273;51.290;6.918;2023-02-28T15:49:21;6.90;43.80
10451;DHT22;5273;51.290;6.918;2023-02-28T15:51:51;6.90;44.30
10451;DHT22;5273;51.290;6.918;2023-02-28T15:54:21;6.90;44.60
10451;DHT22;5273;51.290;6.918;2023-02-28T15:56:51;6.90;45.20
10451;DHT22;5273;51.290;6.918;2023-02-28T15:59:21;6.90;44.80
10451;DHT22;5273;51.290;6.918;2023-02-28T16:02:03;6.80;44.60
10451;DHT22;5273;51.290;6.918;2023-02-28T16:04:53;6.80;45.10
10451;DHT22;5273;51.290;6.918;2023-02-28T16:07:22;6.80;44.90
10451;DHT22;5273;51.290;6.918;2023-02-28T16:17:19;6.40;45.40
10451;DHT22;5273;51.290;6.918;2023-02-28T16:24:42;6.40;46.40
10451;DHT22;5273;51.290;6.918;2023-02-28T16:27:16;6.40;46.20
10451;DHT22;5273;51.290;6.918;2023-02-28T16:29:44;6.30;46.30
10451;DHT22;5273;51.290;6.918;2023-02-28T16:32:12;6.20;46.40
10451;DHT22;5273;51.290;6.918;2023-02-28T16:37:11;6.10;46.50
10451;DHT22;5273;51.290;6.918;2023-02-28T16:42:10;6.00;46.80
10451;DHT22;5273;51.290;6.918;2023-02-28T16:59:24;5.50;48.10
10451;DHT22;5273;51.290;6.918;2023-02-28T17:09:16;5.20;48.70
10451;DHT22;5273;51.290;6.918;2023-02-28T17:16:39;5.10;49.30
10451;DHT22;5273;51.290;6.918;2023-02-28T17:19:11;5.10;49.60
10451;DHT22;5273;51.290;6.918;2023-02-28T17:26:38;5.00;50.10
10451;DHT22;5273;51.290;6.918;2023-02-28T17:29:09;5.00;50.60
10451;DHT22;5273;51.290;6.918;2023-02-28T17:31:39;4.90;50.90
10451;DHT22;5273;51.290;6.918;2023-02-28T17:36:34;4.70;51.30
10451;DHT22;5273;51.290;6.918;2023-02-28T17:39:03;4.70;51.60
10451;DHT22;5273;51.290;6.918;2023-02-28T17:48:55;4.60;52.50
10451;DHT22;5273;51.290;6.918;2023-02-28T17:51:23;4.50;52.40
10451;DHT22;5273;51.290;6.918;2023-02-28T17:56:20;4.40;52.60
10451;DHT22;5273;51.290;6.918;2023-02-28T18:06:15;4.40;53.20
10451;DHT22;5273;51.290;6.918;2023-02-28T18:13:43;4.40;53.60
10451;DHT22;5273;51.290;6.918;2023-02-28T18:23:35;4.30;53.80
10451;DHT22;5273;51.290;6.918;2023-02-28T18:26:06;4.30;54.00
10451;DHT22;5273;51.290;6.918;2023-02-28T18:31:05;4.30;54.20
10451;DHT22;5273;51.290;6.918;2023-02-28T18:40:58;3.30;53.80
10451;DHT22;5273;51.290;6.918;2023-02-28T18:58:10;4.10;55.20
10451;DHT22;5273;51.290;6.918;2023-02-28T19:15:22;4.00;55.60
10451;DHT22;5273;51.290;6.918;2023-02-28T19:30:06;3.80;56.70
10451;DHT22;5273;51.290;6.918;2023-02-28T19:32:35;3.80;56.90
10451;DHT22;5273;51.290;6.918;2023-02-28T19:49:49;3.70;57.40
10451;DHT22;5273;51.290;6.918;2023-02-28T20:02:12;3.70;57.90
10451;DHT22;5273;51.290;6.918;2023-02-28T20:07:08;3.60;58.00
10451;DHT22;5273;51.290;6.918;2023-02-28T20:24:22;3.50;58.60
10451;DHT22;5273;51.290;6.918;2023-02-28T20:41:34;3.30;59.50
10451;DHT22;5273;51.290;6.918;2023-02-28T20:56:19;3.20;60.20
10451;DHT22;5273;51.290;6.918;2023-02-28T20:58:50;3.10;60.30
10451;DHT22;5273;51.290;6.918;2023-02-28T21:01:19;3.10;60.80
10451;DHT22;5273;51.290;6.918;2023-02-28T21:03:51;3.10;60.80
10451;DHT22;5273;51.290;6.918;2023-02-28T21:06:20;3.10;61.10
10451;DHT22;5273;51.290;6.918;2023-02-28T21:08:48;3.10;61.20
10451;DHT22;5273;51.290;6.918;2023-02-28T21:11:16;3.00;61.30
10451;DHT22;5273;51.290;6.918;2023-02-28T21:13:45;3.00;61.60
10451;DHT22;5273;51.290;6.918;2023-02-28T21:16:15;3.00;61.70
10451;DHT22;5273;51.290;6.918;2023-02-28T21:21:13;2.90;62.10
10451;DHT22;5273;51.290;6.918;2023-02-28T21:23:41;2.90;62.30
10451;DHT22;5273;51.290;6.918;2023-02-28T21:26:11;2.80;62.30
10451;DHT22;5273;51.290;6.918;2023-02-28T21:28:39;2.80;62.70
10451;DHT22;5273;51.290;6.918;2023-02-28T21:31:10;2.80;63.00
10451;DHT22;5273;51.290;6.918;2023-02-28T21:33:38;2.70;63.10
10451;DHT22;5273;51.290;6.918;2023-02-28T21:36:07;2.70;63.40
10451;DHT22;5273;51.290;6.918;2023-02-28T21:38:37;2.70;63.60
10451;DHT22;5273;51.290;6.918;2023-02-28T21:41:05;2.70;63.90
10451;DHT22;5273;51.290;6.918;2023-02-28T21:46:00;2.50;64.60
10451;DHT22;5273;51.290;6.918;2023-02-28T21:50:56;2.50;65.10
10451;DHT22;5273;51.290;6.918;2023-02-28T22:08:09;2.20;67.30
10451;DHT22;5273;51.290;6.918;2023-02-28T22:25:20;1.90;70.10
10451;DHT22;5273;51.290;6.918;2023-02-28T22:42:33;1.70;71.20
10451;DHT22;5273;51.290;6.918;2023-02-28T22:54:49;1.60;73.10
10451;DHT22;5273;51.290;6.918;2023-02-28T22:59:46;1.50;73.20
10451;DHT22;5273;51.290;6.918;2023-02-28T23:16:57;1.50;74.30
10451;DHT22;5273;51.290;6.918;2023-02-28T23:19:26;1.40;74.20
10451;DHT22;5273;51.290;6.918;2023-02-28T23:24:24;1.40;74.50
10451;DHT22;5273;51.290;6.918;2023-02-28T23:26:53;1.40;74.70
10451;DHT22;5273;51.290;6.918;2023-02-28T23:34:17;1.40;75.40
10451;DHT22;5273;51.290;6.918;2023-02-28T23:39:18;1.30;75.60
10451;DHT22;5273;51.290;6.918;2023-02-28T23:41:46;1.30;76.00
10451;DHT22;5273;51.290;6.918;2023-02-28T23:46:42;1.30;76.40
10451;DHT22;5273;51.290;6.918;2023-02-28T23:51:37;1.20;76.70
